sensor_id;sensor_type;location;lat;lon;timestamp;temperature;humidity
35804;DHT22;21924;51.934;7.414;2022-12-17T00:00:20;-4.10;99.90
35804;DHT22;21924;51.934;7.414;2022-12-17T00:03:23;-4.00;99.90
35804;DHT22;21924;51.934;7.414;2022-12-17T00:06:26;-4.00;99.90
35804;DHT22;21924;51.934;7.414;2022-12-17T00:09:30;-3.90;99.90
35804;DHT22;21924;51.934;7.414;2022-12-17T00:12:33;-3.90;99.90
35804;DHT22;21924;51.934;7.414;2022-12-17T00:15:36;-3.90;99.90
35804;DHT22;21924;51.934;7.414;2022-12-17T00:18:39;-3.90;99.90
35804;DHT22;21924;51.934;7.414;2022-12-17T00:21:42;-3.80;99.90
35804;DHT22;21924;51.934;7.414;2022-12-17T00:24:46;-3.80;99.90
35804;DHT22;21924;51.934;7.414;2022-12-17T00:27:49;-3.80;99.90
35804;DHT22;21924;51.934;7.414;2022-12-17T00:30:53;-3.80;99.90
35804;DHT22;21924;51.934;7.414;2022-12-17T00:33:56;-3.80;99.90
35804;DHT22;21924;51.934;7.414;2022-12-17T00:36:59;-3.80;99.90
35804;DHT22;21924;51.934;7.414;2022-12-17T00:40:03;-3.80;99.90
35804;DHT22;21924;51.934;7.414;2022-12-17T00:43:11;-3.80;99.90
35804;DHT22;21924;51.934;7.414;2022-12-17T00:46:14;-3.80;99.90
35804;DHT22;21924;51.934;7.414;2022-12-17T00:49:17;-3.80;99.90
35804;DHT22;21924;51.934;7.414;2022-12-17T00:52:21;-3.80;99.90
35804;DHT22;21924;51.934;7.414;2022-12-17T00:55:24;-3.70;99.90
35804;DHT22;21924;51.934;7.414;2022-12-17T00:58:27;-3.80;99.90
35804;DHT22;21924;51.934;7.414;2022-12-17T01:01:31;-3.70;99.90
35804;DHT22;21924;51.934;7.414;2022-12-17T01:04:34;-3.70;99.90
35804;DHT22;21924;51.934;7.414;2022-12-17T01:07:37;-3.70;99.90
35804;DHT22;21924;51.934;7.414;2022-12-17T01:10:40;-3.70;99.90
35804;DHT22;21924;51.934;7.414;2022-12-17T01:13:44;-3.60;99.90
35804;DHT22;21924;51.934;7.414;2022-12-17T01:16:47;-3.60;99.90
35804;DHT22;21924;51.934;7.414;2022-12-17T01:19:50;-3.60;99.90
35804;DHT22;21924;51.934;7.414;2022-12-17T01:22:53;-3.60;99.90
35804;DHT22;21924;51.934;7.414;2022-12-17T01:25:57;-3.60;99.90
35804;DHT22;21924;51.934;7.414;2022-12-17T01:29:01;-3.60;99.90
35804;DHT22;21924;51.934;7.414;2022-12-17T01:32:04;-3.50;99.90
35804;DHT22;21924;51.934;7.414;2022-12-17T01:35:08;-3.50;99.90
35804;DHT22;21924;51.934;7.414;2022-12-17T01:38:16;-3.40;99.90
35804;DHT22;21924;51.934;7.414;2022-12-17T01:41:19;-3.40;99.90
35804;DHT22;21924;51.934;7.414;2022-12-17T01:48:00;-3.30;99.90
35804;DHT22;21924;51.934;7.414;2022-12-17T01:51:04;-3.30;99.90
35804;DHT22;21924;51.934;7.414;2022-12-17T01:54:09;-3.30;99.90
35804;DHT22;21924;51.934;7.414;2022-12-17T01:57:12;-3.30;99.90
35804;DHT22;21924;51.934;7.414;2022-12-17T02:00:17;-3.20;99.90
35804;DHT22;21924;51.934;7.414;2022-12-17T02:03:21;-3.20;99.90
35804;DHT22;21924;51.934;7.414;2022-12-17T02:06:26;-3.10;99.90
35804;DHT22;21924;51.934;7.414;2022-12-17T02:09:41;-3.10;99.90
35804;DHT22;21924;51.934;7.414;2022-12-17T02:12:51;-3.10;99.90
35804;DHT22;21924;51.934;7.414;2022-12-17T02:16:25;-3.10;99.90
35804;DHT22;21924;51.934;7.414;2022-12-17T02:20:06;-3.10;99.90
35804;DHT22;21924;51.934;7.414;2022-12-17T02:27:06;-3.10;99.90
35804;DHT22;21924;51.934;7.414;2022-12-17T02:30:10;-3.00;99.90
35804;DHT22;21924;51.934;7.414;2022-12-17T02:33:14;-3.00;99.90
35804;DHT22;21924;51.934;7.414;2022-12-17T02:36:18;-3.00;99.90
35804;DHT22;21924;51.934;7.414;2022-12-17T02:39:21;-3.00;99.90
35804;DHT22;21924;51.934;7.414;2022-12-17T02:42:25;-2.90;99.90
35804;DHT22;21924;51.934;7.414;2022-12-17T02:45:30;-2.90;99.90
35804;DHT22;21924;51.934;7.414;2022-12-17T02:48:34;-2.90;99.90
35804;DHT22;21924;51.934;7.414;2022-12-17T02:51:38;-2.80;99.90
35804;DHT22;21924;51.934;7.414;2022-12-17T02:54:41;-2.80;99.90
35804;DHT22;21924;51.934;7.414;2022-12-17T02:57:45;-2.80;99.90
35804;DHT22;21924;51.934;7.414;2022-12-17T03:00:48;-2.80;99.90
35804;DHT22;21924;51.934;7.414;2022-12-17T03:03:51;-2.70;99.90
35804;DHT22;21924;51.934;7.414;2022-12-17T03:06:54;-2.70;99.90
35804;DHT22;21924;51.934;7.414;2022-12-17T03:09:59;-2.70;99.90
35804;DHT22;21924;51.934;7.414;2022-12-17T03:13:02;-2.60;99.90
35804;DHT22;21924;51.934;7.414;2022-12-17T03:16:14;-2.60;99.90
35804;DHT22;21924;51.934;7.414;2022-12-17T03:19:20;-2.60;99.90
35804;DHT22;21924;51.934;7.414;2022-12-17T03:22:23;-2.60;99.90
35804;DHT22;21924;51.934;7.414;2022-12-17T03:25:26;-2.60;99.90
35804;DHT22;21924;51.934;7.414;2022-12-17T03:28:30;-2.60;99.90
35804;DHT22;21924;51.934;7.414;2022-12-17T03:31:33;-2.50;99.90
35804;DHT22;21924;51.934;7.414;2022-12-17T03:34:36;-2.50;99.90
35804;DHT22;21924;51.934;7.414;2022-12-17T03:37:39;-2.50;99.90
35804;DHT22;21924;51.934;7.414;2022-12-17T03:40:43;-2.50;99.90
35804;DHT22;21924;51.934;7.414;2022-12-17T03:43:51;-2.40;99.90
35804;DHT22;21924;51.934;7.414;2022-12-17T03:46:54;-2.40;99.90
35804;DHT22;21924;51.934;7.414;2022-12-17T03:49:58;-2.40;99.90
35804;DHT22;21924;51.934;7.414;2022-12-17T03:53:03;-2.40;99.90
35804;DHT22;21924;51.934;7.414;2022-12-17T03:56:07;-2.40;99.90
35804;DHT22;21924;51.934;7.414;2022-12-17T03:59:10;-2.40;99.90
35804;DHT22;21924;51.934;7.414;2022-12-17T04:02:13;-2.40;99.90
35804;DHT22;21924;51.934;7.414;2022-12-17T04:05:17;-2.40;99.90
35804;DHT22;21924;51.934;7.414;2022-12-17T04:08:20;-2.40;99.90
35804;DHT22;21924;51.934;7.414;2022-12-17T04:11:23;-2.30;99.90
35804;DHT22;21924;51.934;7.414;2022-12-17T04:14:27;-2.30;99.90
35804;DHT22;21924;51.934;7.414;2022-12-17T04:17:30;-2.30;99.90
35804;DHT22;21924;51.934;7.414;2022-12-17T04:20:33;-2.40;99.90
35804;DHT22;21924;51.934;7.414;2022-12-17T04:23:36;-2.40;99.90
35804;DHT22;21924;51.934;7.414;2022-12-17T04:26:40;-2.30;99.90
35804;DHT22;21924;51.934;7.414;2022-12-17T04:29:43;-2.30;99.90
35804;DHT22;21924;51.934;7.414;2022-12-17T04:32:46;-2.30;99.90
35804;DHT22;21924;51.934;7.414;2022-12-17T04:35:50;-2.30;99.90
35804;DHT22;21924;51.934;7.414;2022-12-17T04:38:53;-2.30;99.90
35804;DHT22;21924;51.934;7.414;2022-12-17T04:41:57;-2.30;99.90
35804;DHT22;21924;51.934;7.414;2022-12-17T04:45:00;-2.30;99.90
35804;DHT22;21924;51.934;7.414;2022-12-17T04:48:05;-2.30;99.90
35804;DHT22;21924;51.934;7.414;2022-12-17T04:51:08;-2.30;99.90
35804;DHT22;21924;51.934;7.414;2022-12-17T04:54:12;-2.30;99.90
35804;DHT22;21924;51.934;7.414;2022-12-17T04:57:15;-2.30;99.90
35804;DHT22;21924;51.934;7.414;2022-12-17T05:00:19;-2.30;99.90
35804;DHT22;21924;51.934;7.414;2022-12-17T05:03:22;-2.30;99.90
35804;DHT22;21924;51.934;7.414;2022-12-17T05:06:25;-2.30;99.90
35804;DHT22;21924;51.934;7.414;2022-12-17T05:09:29;-2.30;99.90
35804;DHT22;21924;51.934;7.414;2022-12-17T05:12:32;-2.30;99.90
35804;DHT22;21924;51.934;7.414;2022-12-17T05:15:35;-2.30;99.90
35804;DHT22;21924;51.934;7.414;2022-12-17T05:18:52;-2.30;99.90
35804;DHT22;21924;51.934;7.414;2022-12-17T05:21:56;-2.30;99.90
35804;DHT22;21924;51.934;7.414;2022-12-17T05:24:59;-2.30;99.90
35804;DHT22;21924;51.934;7.414;2022-12-17T05:28:02;-2.30;99.90
35804;DHT22;21924;51.934;7.414;2022-12-17T05:31:06;-2.30;99.90
35804;DHT22;21924;51.934;7.414;2022-12-17T05:34:09;-2.30;99.90
35804;DHT22;21924;51.934;7.414;2022-12-17T05:37:12;-2.30;99.90
35804;DHT22;21924;51.934;7.414;2022-12-17T05:40:16;-2.20;99.90
35804;DHT22;21924;51.934;7.414;2022-12-17T05:43:19;-2.20;99.90
35804;DHT22;21924;51.934;7.414;2022-12-17T05:46:22;-2.20;99.90
35804;DHT22;21924;51.934;7.414;2022-12-17T05:49:26;-2.10;99.90
35804;DHT22;21924;51.934;7.414;2022-12-17T05:52:29;-2.20;99.90
35804;DHT22;21924;51.934;7.414;2022-12-17T05:55:32;-2.20;99.90
35804;DHT22;21924;51.934;7.414;2022-12-17T05:58:36;-2.20;99.90
35804;DHT22;21924;51.934;7.414;2022-12-17T06:01:40;-2.20;99.90
35804;DHT22;21924;51.934;7.414;2022-12-17T06:04:50;-2.10;99.90
35804;DHT22;21924;51.934;7.414;2022-12-17T06:08:01;-2.10;99.90
35804;DHT22;21924;51.934;7.414;2022-12-17T06:11:04;-2.10;99.90
35804;DHT22;21924;51.934;7.414;2022-12-17T06:14:08;-2.10;99.90
35804;DHT22;21924;51.934;7.414;2022-12-17T06:17:11;-2.10;99.90
35804;DHT22;21924;51.934;7.414;2022-12-17T06:20:15;-2.10;99.90
35804;DHT22;21924;51.934;7.414;2022-12-17T06:23:18;-2.10;99.90
35804;DHT22;21924;51.934;7.414;2022-12-17T06:26:21;-2.10;99.90
35804;DHT22;21924;51.934;7.414;2022-12-17T06:29:24;-2.10;99.90
35804;DHT22;21924;51.934;7.414;2022-12-17T06:32:27;-2.10;99.90
35804;DHT22;21924;51.934;7.414;2022-12-17T06:35:31;-2.00;99.90
35804;DHT22;21924;51.934;7.414;2022-12-17T06:38:34;-2.00;99.90
35804;DHT22;21924;51.934;7.414;2022-12-17T06:41:38;-2.00;99.90
35804;DHT22;21924;51.934;7.414;2022-12-17T06:44:40;-2.10;99.90
35804;DHT22;21924;51.934;7.414;2022-12-17T06:47:44;-2.00;99.90
35804;DHT22;21924;51.934;7.414;2022-12-17T06:50:47;-2.00;99.90
35804;DHT22;21924;51.934;7.414;2022-12-17T06:53:50;-2.00;99.90
35804;DHT22;21924;51.934;7.414;2022-12-17T06:56:53;-2.00;99.90
35804;DHT22;21924;51.934;7.414;2022-12-17T06:59:57;-2.10;99.90
35804;DHT22;21924;51.934;7.414;2022-12-17T07:03:00;-2.00;99.90
35804;DHT22;21924;51.934;7.414;2022-12-17T07:06:03;-2.00;99.90
35804;DHT22;21924;51.934;7.414;2022-12-17T07:09:07;-2.00;99.90
35804;DHT22;21924;51.934;7.414;2022-12-17T07:12:10;-2.00;99.90
35804;DHT22;21924;51.934;7.414;2022-12-17T07:15:13;-2.00;99.90
35804;DHT22;21924;51.934;7.414;2022-12-17T07:18:17;-2.10;99.90
35804;DHT22;21924;51.934;7.414;2022-12-17T07:21:20;-2.00;99.90
35804;DHT22;21924;51.934;7.414;2022-12-17T07:24:23;-2.00;99.90
35804;DHT22;21924;51.934;7.414;2022-12-17T07:27:27;-2.00;99.90
35804;DHT22;21924;51.934;7.414;2022-12-17T07:30:30;-2.00;99.90
35804;DHT22;21924;51.934;7.414;2022-12-17T07:33:33;-2.10;99.90
35804;DHT22;21924;51.934;7.414;2022-12-17T07:36:37;-2.00;99.90
35804;DHT22;21924;51.934;7.414;2022-12-17T07:39:40;-2.00;99.90
35804;DHT22;21924;51.934;7.414;2022-12-17T07:42:43;-2.00;99.90
35804;DHT22;21924;51.934;7.414;2022-12-17T07:45:46;-2.10;99.90
35804;DHT22;21924;51.934;7.414;2022-12-17T07:48:49;-2.00;99.90
35804;DHT22;21924;51.934;7.414;2022-12-17T07:51:53;-2.10;99.90
35804;DHT22;21924;51.934;7.414;2022-12-17T07:54:56;-2.10;99.90
35804;DHT22;21924;51.934;7.414;2022-12-17T07:58:01;-2.00;99.90
35804;DHT22;21924;51.934;7.414;2022-12-17T08:01:04;-2.00;99.90
35804;DHT22;21924;51.934;7.414;2022-12-17T08:04:07;-1.90;99.90
35804;DHT22;21924;51.934;7.414;2022-12-17T08:07:11;-1.90;99.90
35804;DHT22;21924;51.934;7.414;2022-12-17T08:10:14;-1.90;99.90
35804;DHT22;21924;51.934;7.414;2022-12-17T08:13:18;-1.90;99.90
35804;DHT22;21924;51.934;7.414;2022-12-17T08:16:21;-1.90;99.90
35804;DHT22;21924;51.934;7.414;2022-12-17T08:19:24;-1.90;99.90
35804;DHT22;21924;51.934;7.414;2022-12-17T08:22:27;-2.00;99.90
35804;DHT22;21924;51.934;7.414;2022-12-17T08:25:30;-1.90;99.90
35804;DHT22;21924;51.934;7.414;2022-12-17T08:28:34;-1.90;99.90
35804;DHT22;21924;51.934;7.414;2022-12-17T08:31:37;-2.00;99.90
35804;DHT22;21924;51.934;7.414;2022-12-17T08:34:40;-1.90;99.90
35804;DHT22;21924;51.934;7.414;2022-12-17T08:37:43;-1.90;99.90
35804;DHT22;21924;51.934;7.414;2022-12-17T08:40:47;-1.90;99.90
35804;DHT22;21924;51.934;7.414;2022-12-17T08:43:50;-1.90;99.90
35804;DHT22;21924;51.934;7.414;2022-12-17T08:46:53;-1.90;99.90
35804;DHT22;21924;51.934;7.414;2022-12-17T08:49:56;-1.90;99.90
35804;DHT22;21924;51.934;7.414;2022-12-17T08:53:01;-1.90;99.90
35804;DHT22;21924;51.934;7.414;2022-12-17T08:56:05;-1.90;99.90
35804;DHT22;21924;51.934;7.414;2022-12-17T08:59:08;-1.90;99.90
35804;DHT22;21924;51.934;7.414;2022-12-17T09:02:12;-1.90;99.90
35804;DHT22;21924;51.934;7.414;2022-12-17T09:05:15;-1.80;99.90
35804;DHT22;21924;51.934;7.414;2022-12-17T09:08:19;-1.80;99.90
35804;DHT22;21924;51.934;7.414;2022-12-17T09:11:29;-1.80;99.90
35804;DHT22;21924;51.934;7.414;2022-12-17T09:14:32;-1.80;99.90
35804;DHT22;21924;51.934;7.414;2022-12-17T09:17:36;-1.80;99.90
35804;DHT22;21924;51.934;7.414;2022-12-17T09:20:39;-1.80;99.90
35804;DHT22;21924;51.934;7.414;2022-12-17T09:23:42;-1.70;99.90
35804;DHT22;21924;51.934;7.414;2022-12-17T09:26:46;-1.70;99.90
35804;DHT22;21924;51.934;7.414;2022-12-17T09:29:49;-1.70;99.90
35804;DHT22;21924;51.934;7.414;2022-12-17T09:32:52;-1.60;99.90
35804;DHT22;21924;51.934;7.414;2022-12-17T09:35:56;-1.70;99.90
35804;DHT22;21924;51.934;7.414;2022-12-17T09:38:59;-1.60;99.90
35804;DHT22;21924;51.934;7.414;2022-12-17T09:45:21;-1.60;99.90
35804;DHT22;21924;51.934;7.414;2022-12-17T09:48:31;-1.60;99.90
35804;DHT22;21924;51.934;7.414;2022-12-17T09:51:37;-1.60;99.90
35804;DHT22;21924;51.934;7.414;2022-12-17T09:54:45;-1.60;99.90
35804;DHT22;21924;51.934;7.414;2022-12-17T09:57:50;-1.60;99.90
35804;DHT22;21924;51.934;7.414;2022-12-17T10:00:53;-1.60;99.90
35804;DHT22;21924;51.934;7.414;2022-12-17T10:03:56;-1.70;99.90
35804;DHT22;21924;51.934;7.414;2022-12-17T10:07:00;-1.70;99.90
35804;DHT22;21924;51.934;7.414;2022-12-17T10:10:17;-1.70;99.90
35804;DHT22;21924;51.934;7.414;2022-12-17T10:13:22;-1.70;99.90
35804;DHT22;21924;51.934;7.414;2022-12-17T10:16:33;-1.60;99.90
35804;DHT22;21924;51.934;7.414;2022-12-17T10:19:40;-1.60;99.90
35804;DHT22;21924;51.934;7.414;2022-12-17T10:22:47;-1.70;99.90
35804;DHT22;21924;51.934;7.414;2022-12-17T10:25:53;-1.60;99.90
35804;DHT22;21924;51.934;7.414;2022-12-17T10:29:24;-1.50;99.90
35804;DHT22;21924;51.934;7.414;2022-12-17T10:32:28;-1.40;99.90
35804;DHT22;21924;51.934;7.414;2022-12-17T10:35:36;-1.50;99.90
35804;DHT22;21924;51.934;7.414;2022-12-17T10:38:39;-1.40;99.90
35804;DHT22;21924;51.934;7.414;2022-12-17T10:41:42;-1.30;99.90
35804;DHT22;21924;51.934;7.414;2022-12-17T10:44:46;-1.30;99.90
35804;DHT22;21924;51.934;7.414;2022-12-17T10:47:49;-1.30;99.90
35804;DHT22;21924;51.934;7.414;2022-12-17T10:50:52;-1.30;99.90
35804;DHT22;21924;51.934;7.414;2022-12-17T10:53:55;-1.30;99.90
35804;DHT22;21924;51.934;7.414;2022-12-17T10:57:00;-1.20;99.90
35804;DHT22;21924;51.934;7.414;2022-12-17T11:00:24;-1.20;99.90
35804;DHT22;21924;51.934;7.414;2022-12-17T11:06:49;-1.20;99.90
35804;DHT22;21924;51.934;7.414;2022-12-17T11:09:54;-1.10;99.90
35804;DHT22;21924;51.934;7.414;2022-12-17T11:13:02;-1.20;99.90
35804;DHT22;21924;51.934;7.414;2022-12-17T11:16:32;-1.20;99.90
35804;DHT22;21924;51.934;7.414;2022-12-17T11:19:42;-1.20;99.90
35804;DHT22;21924;51.934;7.414;2022-12-17T11:22:57;-1.20;99.90
35804;DHT22;21924;51.934;7.414;2022-12-17T11:26:13;-1.10;99.90
35804;DHT22;21924;51.934;7.414;2022-12-17T11:29:17;-1.10;99.90
35804;DHT22;21924;51.934;7.414;2022-12-17T11:32:33;-1.00;99.90
35804;DHT22;21924;51.934;7.414;2022-12-17T11:35:45;-1.10;99.90
35804;DHT22;21924;51.934;7.414;2022-12-17T11:38:55;-1.00;99.90
35804;DHT22;21924;51.934;7.414;2022-12-17T11:48:46;-0.90;99.90
35804;DHT22;21924;51.934;7.414;2022-12-17T11:52:05;-0.80;99.90
35804;DHT22;21924;51.934;7.414;2022-12-17T11:58:47;-0.90;99.90
35804;DHT22;21924;51.934;7.414;2022-12-17T12:05:58;-0.90;99.90
35804;DHT22;21924;51.934;7.414;2022-12-17T12:09:11;-0.90;99.90
35804;DHT22;21924;51.934;7.414;2022-12-17T12:12:19;-1.00;99.90
35804;DHT22;21924;51.934;7.414;2022-12-17T12:15:31;-1.10;99.90
35804;DHT22;21924;51.934;7.414;2022-12-17T12:19:05;-1.10;99.90
35804;DHT22;21924;51.934;7.414;2022-12-17T12:22:28;-1.10;99.90
35804;DHT22;21924;51.934;7.414;2022-12-17T12:25:59;-1.20;99.90
35804;DHT22;21924;51.934;7.414;2022-12-17T12:36:09;-0.90;99.90
35804;DHT22;21924;51.934;7.414;2022-12-17T12:39:16;-0.90;99.90
35804;DHT22;21924;51.934;7.414;2022-12-17T12:45:49;-0.90;99.90
35804;DHT22;21924;51.934;7.414;2022-12-17T12:49:18;-1.00;99.90
35804;DHT22;21924;51.934;7.414;2022-12-17T12:52:25;-1.10;99.90
35804;DHT22;21924;51.934;7.414;2022-12-17T12:55:38;-1.00;99.90
35804;DHT22;21924;51.934;7.414;2022-12-17T12:58:43;-0.90;99.90
35804;DHT22;21924;51.934;7.414;2022-12-17T13:01:46;-1.00;99.90
35804;DHT22;21924;51.934;7.414;2022-12-17T13:04:52;-0.90;99.90
35804;DHT22;21924;51.934;7.414;2022-12-17T13:10:54;-0.90;99.90
35804;DHT22;21924;51.934;7.414;2022-12-17T13:13:41;-0.90;99.90
35804;DHT22;21924;51.934;7.414;2022-12-17T13:16:54;-0.90;99.90
35804;DHT22;21924;51.934;7.414;2022-12-17T13:22:49;-0.80;99.90
35804;DHT22;21924;51.934;7.414;2022-12-17T13:25:34;-0.70;99.90
35804;DHT22;21924;51.934;7.414;2022-12-17T13:28:27;-0.80;99.90
35804;DHT22;21924;51.934;7.414;2022-12-17T13:31:16;-0.90;99.90
35804;DHT22;21924;51.934;7.414;2022-12-17T13:34:19;-1.00;99.90
35804;DHT22;21924;51.934;7.414;2022-12-17T13:40:41;-1.20;99.90
35804;DHT22;21924;51.934;7.414;2022-12-17T13:43:30;-1.20;99.90
35804;DHT22;21924;51.934;7.414;2022-12-17T13:46:26;-1.30;99.90
35804;DHT22;21924;51.934;7.414;2022-12-17T13:49:22;-1.30;99.90
35804;DHT22;21924;51.934;7.414;2022-12-17T13:52:19;-1.20;99.90
35804;DHT22;21924;51.934;7.414;2022-12-17T13:55:12;-1.20;99.90
35804;DHT22;21924;51.934;7.414;2022-12-17T13:57:59;-1.20;99.90
35804;DHT22;21924;51.934;7.414;2022-12-17T14:00:43;-1.20;99.90
35804;DHT22;21924;51.934;7.414;2022-12-17T14:03:28;-1.10;99.90
35804;DHT22;21924;51.934;7.414;2022-12-17T14:06:12;-1.30;99.90
35804;DHT22;21924;51.934;7.414;2022-12-17T14:08:57;-1.20;99.90
35804;DHT22;21924;51.934;7.414;2022-12-17T14:11:41;-1.30;99.90
35804;DHT22;21924;51.934;7.414;2022-12-17T14:14:59;-1.50;99.90
35804;DHT22;21924;51.934;7.414;2022-12-17T14:17:46;-1.50;99.90
35804;DHT22;21924;51.934;7.414;2022-12-17T14:20:33;-1.60;99.90
35804;DHT22;21924;51.934;7.414;2022-12-17T14:23:22;-1.60;99.90
35804;DHT22;21924;51.934;7.414;2022-12-17T14:26:10;-1.60;99.90
35804;DHT22;21924;51.934;7.414;2022-12-17T14:28:55;-1.60;99.90
35804;DHT22;21924;51.934;7.414;2022-12-17T14:31:51;-1.60;99.90
35804;DHT22;21924;51.934;7.414;2022-12-17T14:34:40;-1.60;99.90
35804;DHT22;21924;51.934;7.414;2022-12-17T14:37:26;-1.70;99.90
35804;DHT22;21924;51.934;7.414;2022-12-17T14:40:13;-1.70;99.90
35804;DHT22;21924;51.934;7.414;2022-12-17T14:42:59;-1.70;99.90
35804;DHT22;21924;51.934;7.414;2022-12-17T14:45:58;-1.70;99.90
35804;DHT22;21924;51.934;7.414;2022-12-17T14:49:03;-1.70;99.90
35804;DHT22;21924;51.934;7.414;2022-12-17T14:51:49;-1.70;99.90
35804;DHT22;21924;51.934;7.414;2022-12-17T14:54:33;-1.70;99.90
35804;DHT22;21924;51.934;7.414;2022-12-17T14:57:21;-1.80;99.90
35804;DHT22;21924;51.934;7.414;2022-12-17T15:00:07;-1.90;99.90
35804;DHT22;21924;51.934;7.414;2022-12-17T15:02:54;-2.00;99.90
35804;DHT22;21924;51.934;7.414;2022-12-17T15:05:38;-2.10;99.90
35804;DHT22;21924;51.934;7.414;2022-12-17T15:08:22;-2.10;99.90
35804;DHT22;21924;51.934;7.414;2022-12-17T15:11:10;-2.10;99.90
35804;DHT22;21924;51.934;7.414;2022-12-17T15:13:55;-2.20;99.90
35804;DHT22;21924;51.934;7.414;2022-12-17T15:16:39;-2.30;99.90
35804;DHT22;21924;51.934;7.414;2022-12-17T15:19:23;-2.30;99.90
35804;DHT22;21924;51.934;7.414;2022-12-17T15:22:15;-2.40;99.90
35804;DHT22;21924;51.934;7.414;2022-12-17T15:25:00;-2.40;99.90
35804;DHT22;21924;51.934;7.414;2022-12-17T15:27:44;-2.40;99.90
35804;DHT22;21924;51.934;7.414;2022-12-17T15:30:29;-2.50;99.90
35804;DHT22;21924;51.934;7.414;2022-12-17T15:33:13;-2.40;99.90
35804;DHT22;21924;51.934;7.414;2022-12-17T15:35:57;-2.40;99.90
35804;DHT22;21924;51.934;7.414;2022-12-17T15:38:42;-2.40;99.90
35804;DHT22;21924;51.934;7.414;2022-12-17T15:41:27;-2.40;99.90
35804;DHT22;21924;51.934;7.414;2022-12-17T15:44:30;-2.50;99.90
35804;DHT22;21924;51.934;7.414;2022-12-17T15:47:14;-2.50;99.90
35804;DHT22;21924;51.934;7.414;2022-12-17T15:49:58;-2.50;99.90
35804;DHT22;21924;51.934;7.414;2022-12-17T15:52:43;-2.60;99.90
35804;DHT22;21924;51.934;7.414;2022-12-17T15:55:27;-2.50;99.90
35804;DHT22;21924;51.934;7.414;2022-12-17T15:58:12;-2.50;99.90
35804;DHT22;21924;51.934;7.414;2022-12-17T16:00:56;-2.60;99.90
35804;DHT22;21924;51.934;7.414;2022-12-17T16:03:41;-2.50;99.90
35804;DHT22;21924;51.934;7.414;2022-12-17T16:06:25;-2.60;99.90
35804;DHT22;21924;51.934;7.414;2022-12-17T16:09:09;-2.50;99.90
35804;DHT22;21924;51.934;7.414;2022-12-17T16:11:54;-2.60;99.90
35804;DHT22;21924;51.934;7.414;2022-12-17T16:14:38;-2.70;99.90
35804;DHT22;21924;51.934;7.414;2022-12-17T16:17:23;-2.70;99.90
35804;DHT22;21924;51.934;7.414;2022-12-17T16:20:07;-2.80;99.90
35804;DHT22;21924;51.934;7.414;2022-12-17T16:22:52;-2.80;99.90
35804;DHT22;21924;51.934;7.414;2022-12-17T16:25:36;-2.80;99.90
35804;DHT22;21924;51.934;7.414;2022-12-17T16:28:21;-2.80;99.90
35804;DHT22;21924;51.934;7.414;2022-12-17T16:31:06;-2.80;99.90
35804;DHT22;21924;51.934;7.414;2022-12-17T16:33:50;-2.80;99.90
35804;DHT22;21924;51.934;7.414;2022-12-17T16:36:35;-2.90;99.90
35804;DHT22;21924;51.934;7.414;2022-12-17T16:39:19;-2.90;99.90
35804;DHT22;21924;51.934;7.414;2022-12-17T16:42:03;-2.90;99.90
35804;DHT22;21924;51.934;7.414;2022-12-17T16:44:48;-2.90;99.90
35804;DHT22;21924;51.934;7.414;2022-12-17T16:47:32;-2.90;99.90
35804;DHT22;21924;51.934;7.414;2022-12-17T16:50:17;-2.90;99.90
35804;DHT22;21924;51.934;7.414;2022-12-17T16:53:01;-2.90;99.90
35804;DHT22;21924;51.934;7.414;2022-12-17T16:55:47;-3.00;99.90
35804;DHT22;21924;51.934;7.414;2022-12-17T16:58:32;-3.00;99.90
35804;DHT22;21924;51.934;7.414;2022-12-17T17:01:23;-3.10;99.90
35804;DHT22;21924;51.934;7.414;2022-12-17T17:04:08;-3.00;99.90
35804;DHT22;21924;51.934;7.414;2022-12-17T17:06:55;-3.00;99.90
35804;DHT22;21924;51.934;7.414;2022-12-17T17:09:39;-3.00;99.90
35804;DHT22;21924;51.934;7.414;2022-12-17T17:12:24;-3.10;99.90
35804;DHT22;21924;51.934;7.414;2022-12-17T17:15:09;-3.10;99.90
35804;DHT22;21924;51.934;7.414;2022-12-17T17:17:54;-3.10;99.90
35804;DHT22;21924;51.934;7.414;2022-12-17T17:20:38;-3.10;99.90
35804;DHT22;21924;51.934;7.414;2022-12-17T17:23:22;-3.20;99.90
35804;DHT22;21924;51.934;7.414;2022-12-17T17:26:08;-3.20;99.90
35804;DHT22;21924;51.934;7.414;2022-12-17T17:28:52;-3.10;99.90
35804;DHT22;21924;51.934;7.414;2022-12-17T17:31:37;-3.20;99.90
35804;DHT22;21924;51.934;7.414;2022-12-17T17:34:22;-3.20;99.90
35804;DHT22;21924;51.934;7.414;2022-12-17T17:37:06;-3.20;99.90
35804;DHT22;21924;51.934;7.414;2022-12-17T17:39:50;-3.10;99.90
35804;DHT22;21924;51.934;7.414;2022-12-17T17:42:34;-3.10;99.90
35804;DHT22;21924;51.934;7.414;2022-12-17T17:45:18;-3.10;99.90
35804;DHT22;21924;51.934;7.414;2022-12-17T17:48:03;-3.20;99.90
35804;DHT22;21924;51.934;7.414;2022-12-17T17:51:17;-3.20;99.90
35804;DHT22;21924;51.934;7.414;2022-12-17T17:54:03;-3.20;99.90
35804;DHT22;21924;51.934;7.414;2022-12-17T17:56:48;-3.30;99.90
35804;DHT22;21924;51.934;7.414;2022-12-17T17:59:32;-3.40;99.90
35804;DHT22;21924;51.934;7.414;2022-12-17T18:02:16;-3.40;99.90
35804;DHT22;21924;51.934;7.414;2022-12-17T18:05:00;-3.50;99.90
35804;DHT22;21924;51.934;7.414;2022-12-17T18:07:45;-3.50;99.90
35804;DHT22;21924;51.934;7.414;2022-12-17T18:10:31;-3.50;99.90
35804;DHT22;21924;51.934;7.414;2022-12-17T18:13:15;-3.60;99.90
35804;DHT22;21924;51.934;7.414;2022-12-17T18:16:18;-3.60;99.90
35804;DHT22;21924;51.934;7.414;2022-12-17T18:19:09;-3.70;99.90
35804;DHT22;21924;51.934;7.414;2022-12-17T18:21:53;-3.60;99.90
35804;DHT22;21924;51.934;7.414;2022-12-17T18:24:37;-3.60;99.90
35804;DHT22;21924;51.934;7.414;2022-12-17T18:27:22;-3.60;99.90
35804;DHT22;21924;51.934;7.414;2022-12-17T18:30:06;-3.50;99.90
35804;DHT22;21924;51.934;7.414;2022-12-17T18:32:51;-3.50;99.90
35804;DHT22;21924;51.934;7.414;2022-12-17T18:35:35;-3.50;99.90
35804;DHT22;21924;51.934;7.414;2022-12-17T18:38:19;-3.70;99.90
35804;DHT22;21924;51.934;7.414;2022-12-17T18:41:05;-3.70;99.90
35804;DHT22;21924;51.934;7.414;2022-12-17T18:44:11;-3.80;99.90
35804;DHT22;21924;51.934;7.414;2022-12-17T18:46:55;-3.80;99.90
35804;DHT22;21924;51.934;7.414;2022-12-17T18:49:39;-3.80;99.90
35804;DHT22;21924;51.934;7.414;2022-12-17T18:52:24;-3.80;99.90
35804;DHT22;21924;51.934;7.414;2022-12-17T18:55:08;-3.80;99.90
35804;DHT22;21924;51.934;7.414;2022-12-17T18:57:52;-3.80;99.90
35804;DHT22;21924;51.934;7.414;2022-12-17T19:00:37;-3.90;99.90
35804;DHT22;21924;51.934;7.414;2022-12-17T19:03:21;-3.90;99.90
35804;DHT22;21924;51.934;7.414;2022-12-17T19:06:06;-4.00;99.90
35804;DHT22;21924;51.934;7.414;2022-12-17T19:08:50;-4.00;99.90
35804;DHT22;21924;51.934;7.414;2022-12-17T19:11:35;-3.90;99.90
35804;DHT22;21924;51.934;7.414;2022-12-17T19:14:19;-3.90;99.90
35804;DHT22;21924;51.934;7.414;2022-12-17T19:17:05;-4.00;99.90
35804;DHT22;21924;51.934;7.414;2022-12-17T19:19:49;-4.00;99.90
35804;DHT22;21924;51.934;7.414;2022-12-17T19:22:34;-4.00;99.90
35804;DHT22;21924;51.934;7.414;2022-12-17T19:25:18;-4.10;99.90
35804;DHT22;21924;51.934;7.414;2022-12-17T19:28:02;-4.20;99.90
35804;DHT22;21924;51.934;7.414;2022-12-17T19:30:46;-4.20;99.90
35804;DHT22;21924;51.934;7.414;2022-12-17T19:33:31;-4.30;99.90
35804;DHT22;21924;51.934;7.414;2022-12-17T19:36:17;-4.30;99.90